Terminal Aerodrome Forecast
Issued by NWS

Home | Current Version | Previous Version | Text Only | Print | Product List | Glossary On
Versions: 1 2 3 4 5 6 7 8 9 10 11 12 13 14 15 16
000
FTUS45 KVEF 020101 AAA
TAFDAG
TAF AMD
KDAG 020101Z 0201/0224 08015G23KT P6SM FEW150
     FM020300 24011KT P6SM FEW150
     FM020600 27010KT P6SM FEW200
     FM022000 02006KT P6SM FEW150=

USA.gov is the U.S. government's official web portal to all federal, state and local government web resources and services.